sim
Sign-in with your pilot id or email,
or register
Callsign
Passwort

Schedule Details

Flight Number: DLH459
Departure: San Francisco International Airport (KSFO) at 05:40
Arrival: Munich Airport (EDDM) at 16:40
Route: Lufthansa Passenger Schedule. Enter filed route here before submitting Pirep.

Weather Information
Getting current METAR information for KSFO 240356Z 27014KT 10SM SCT006 18/16 A3007 RMK AO2 SLP182 T01780156
Getting current METAR information for EDDM 240350Z VRB01KT CAVOK 10/10 Q1009 NOSIG

Schedule Frequency

Route Map